Time;durP1;ratioP1;P1;durP2;ratioP2;P2;SDS_P1;SDS_P2;PMS_P1;PMS_P2;Temp;Humidity;BMP_temperature;BMP_pressure;BME280_temperature;BME280_humidity;BME280_pressure;Samples;Min_cycle;Max_cycle;Signal;HPM_P1;HPM_P2
2024/01/22 00:02:10;;;;;;;18.20;2.97;;;23.30;66.10;;;;;;5093393;28;20048;-87
2024/01/22 00:04:38;;;;;;;8.65;2.35;;;23.20;65.90;;;;;;5093556;28;20490;-86
2024/01/22 00:07:06;;;;;;;13.27;2.75;;;23.20;65.90;;;;;;5092452;28;20081;-87
2024/01/22 00:09:34;;;;;;;7.70;2.35;;;23.20;65.70;;;;;;5092593;28;20024;-86
2024/01/22 00:12:01;;;;;;;10.80;2.60;;;23.20;66.40;;;;;;5073617;28;20024;-85
2024/01/22 00:14:30;;;;;;;10.63;2.28;;;23.20;66.30;;;;;;5093319;28;20526;-86
2024/01/22 00:16:57;;;;;;;9.05;2.40;;;23.20;66.40;;;;;;5072327;28;20059;-82
2024/01/22 00:19:27;;;;;;;16.33;2.60;;;23.20;66.50;;;;;;5080548;28;20076;-82
2024/01/22 00:21:55;;;;;;;11.45;2.75;;;23.20;66.50;;;;;;5070143;28;20020;-85
2024/01/22 00:24:22;;;;;;;13.05;2.75;;;23.20;66.40;;;;;;5071285;28;20070;-82
2024/01/22 00:26:50;;;;;;;9.77;2.05;;;23.20;66.60;;;;;;5075627;28;20033;-85
2024/01/22 00:29:17;;;;;;;14.52;2.70;;;23.30;66.40;;;;;;5082575;28;20045;-86
2024/01/22 00:31:46;;;;;;;12.75;2.53;;;23.20;66.40;;;;;;5099104;28;20039;-82
2024/01/22 00:34:13;;;;;;;15.07;2.17;;;23.20;66.10;;;;;;5092984;28;20074;-87
2024/01/22 00:36:42;;;;;;;17.85;2.58;;;23.20;66.00;;;;;;5093307;28;20031;-86
2024/01/22 00:39:09;;;;;;;12.68;2.60;;;23.20;66.30;;;;;;5059495;28;20055;-83
2024/01/22 00:41:37;;;;;;;12.30;2.25;;;23.20;66.20;;;;;;5078322;28;20153;-86
2024/01/22 00:44:05;;;;;;;13.73;2.60;;;23.30;66.60;;;;;;5078683;28;20066;-85
2024/01/22 00:46:32;;;;;;;8.77;2.15;;;23.30;66.70;;;;;;5089823;28;20058;-84
2024/01/22 00:48:59;;;;;;;9.35;2.35;;;23.30;66.20;;;;;;5097783;28;20020;-85
2024/01/22 00:51:27;;;;;;;16.08;2.47;;;23.30;66.10;;;;;;5079537;28;20053;-84
2024/01/22 00:53:54;;;;;;;15.50;2.75;;;23.30;66.30;;;;;;5099021;28;20016;-84
2024/01/22 00:56:23;;;;;;;11.90;2.15;;;23.30;66.40;;;;;;5075782;28;20033;-85
2024/01/22 00:58:50;;;;;;;14.10;2.20;;;23.20;66.40;;;;;;5086241;28;20031;-86
2024/01/22 01:01:17;;;;;;;12.45;2.90;;;23.30;66.20;;;;;;5097837;28;20024;-86
2024/01/22 01:03:45;;;;;;;9.18;2.40;;;23.30;66.20;;;;;;5098971;28;20483;-86
2024/01/22 01:06:12;;;;;;;9.82;2.25;;;23.20;65.80;;;;;;5094892;28;20073;-86
2024/01/22 01:08:39;;;;;;;9.40;2.33;;;23.20;65.90;;;;;;5094618;28;20383;-86
2024/01/22 01:11:07;;;;;;;12.07;2.30;;;23.20;66.30;;;;;;5094994;28;20026;-84
2024/01/22 01:13:34;;;;;;;8.45;2.13;;;23.20;66.10;;;;;;5070779;28;20422;-84
2024/01/22 01:16:02;;;;;;;8.77;2.15;;;23.20;66.00;;;;;;5077910;28;20045;-83
2024/01/22 01:18:29;;;;;;;15.00;2.92;;;23.20;66.10;;;;;;5082495;28;20032;-84
2024/01/22 01:20:56;;;;;;;12.80;2.15;;;23.10;65.70;;;;;;5096664;28;20513;-85
2024/01/22 01:23:24;;;;;;;10.65;2.08;;;23.20;65.90;;;;;;5094222;28;20028;-85
2024/01/22 01:25:53;;;;;;;10.10;2.17;;;23.10;65.30;;;;;;5080997;28;20059;-84
2024/01/22 01:28:21;;;;;;;23.13;3.10;;;23.10;65.60;;;;;;5096555;28;20024;-85
2024/01/22 01:30:52;;;;;;;11.60;2.22;;;23.10;66.30;;;;;;5067169;28;20139;-80
2024/01/22 01:33:20;;;;;;;8.48;2.25;;;23.10;66.80;;;;;;5076675;28;20153;-81
2024/01/22 01:35:47;;;;;;;8.90;2.03;;;23.20;66.90;;;;;;5088272;28;20490;-83
2024/01/22 01:38:16;;;;;;;11.18;2.72;;;23.20;66.80;;;;;;5094482;28;20068;-81
2024/01/22 01:40:49;;;;;;;12.95;2.28;;;23.10;66.50;;;;;;5075996;28;20070;-82
2024/01/22 01:43:18;;;;;;;11.80;2.42;;;23.10;66.80;;;;;;5083960;28;20016;-86
2024/01/22 01:45:45;;;;;;;11.43;2.20;;;23.10;66.80;;;;;;5079268;28;20043;-84
2024/01/22 01:48:14;;;;;;;8.20;2.10;;;23.10;67.00;;;;;;5072504;28;20017;-82
2024/01/22 01:50:43;;;;;;;7.90;2.33;;;23.10;67.00;;;;;;5062008;28;20029;-85
2024/01/22 01:53:14;;;;;;;10.45;2.10;;;23.10;67.20;;;;;;5064815;28;20052;-82
2024/01/22 01:55:46;;;;;;;6.47;1.75;;;23.20;66.70;;;;;;5078937;28;20032;-83
2024/01/22 01:58:15;;;;;;;12.90;2.10;;;23.20;65.90;;;;;;5093785;28;20036;-86
2024/01/22 02:00:47;;;;;;;11.35;2.35;;;23.20;66.10;;;;;;5090656;28;20074;-86
2024/01/22 02:03:20;;;;;;;8.23;2.22;;;23.20;66.50;;;;;;5089434;28;20475;-79
2024/01/22 02:05:47;;;;;;;15.65;2.80;;;23.20;66.40;;;;;;5079232;28;20071;-80
2024/01/22 02:08:16;;;;;;;9.77;2.13;;;23.20;66.60;;;;;;5080846;28;20114;-84
2024/01/22 02:10:47;;;;;;;9.35;2.22;;;23.30;66.50;;;;;;5091581;28;20024;-84
2024/01/22 02:13:15;;;;;;;10.48;2.33;;;23.20;66.50;;;;;;5097361;28;20084;-85
2024/01/22 02:15:43;;;;;;;7.47;1.90;;;23.30;66.10;;;;;;5095197;28;20399;-84
2024/01/22 02:18:10;;;;;;;5.80;1.75;;;23.30;65.80;;;;;;5076739;28;20032;-82
2024/01/22 02:20:38;;;;;;;9.90;2.15;;;23.30;66.00;;;;;;5084389;28;20067;-80
2024/01/22 02:23:06;;;;;;;11.02;1.88;;;23.40;65.40;;;;;;5075293;28;20055;-86
2024/01/22 02:25:34;;;;;;;11.52;2.38;;;23.40;64.80;;;;;;5068383;28;20072;-83
2024/01/22 02:28:01;;;;;;;13.32;1.95;;;23.50;65.40;;;;;;5067570;28;20162;-85
2024/01/22 02:30:29;;;;;;;5.68;1.50;;;23.40;65.00;;;;;;5086410;28;20467;-82
2024/01/22 02:32:56;;;;;;;10.23;2.20;;;23.40;65.50;;;;;;5090647;28;20103;-84
2024/01/22 02:35:24;;;;;;;11.25;1.80;;;23.40;65.90;;;;;;5072184;28;20058;-82
2024/01/22 02:37:51;;;;;;;13.88;2.15;;;23.40;65.70;;;;;;5084419;28;20106;-84
2024/01/22 02:40:18;;;;;;;6.90;1.88;;;23.40;65.00;;;;;;5054436;28;20072;-85
2024/01/22 02:42:47;;;;;;;8.23;2.03;;;23.50;65.60;;;;;;5066228;28;20058;-85
2024/01/22 02:45:14;;;;;;;11.98;2.20;;;23.50;65.50;;;;;;5087157;28;20035;-87
2024/01/22 02:47:42;;;;;;;10.40;1.90;;;23.60;65.80;;;;;;5074691;28;20060;-85
2024/01/22 02:50:09;;;;;;;9.57;2.28;;;23.60;65.10;;;;;;5095013;28;20012;-85
2024/01/22 02:52:37;;;;;;;10.90;2.40;;;23.70;65.70;;;;;;5093276;28;20024;-85
2024/01/22 02:55:04;;;;;;;9.77;1.70;;;23.80;65.10;;;;;;5092204;28;20024;-86
2024/01/22 02:57:32;;;;;;;9.30;1.83;;;23.90;65.10;;;;;;5089091;28;20175;-85
2024/01/22 02:59:59;;;;;;;10.63;1.85;;;24.00;65.40;;;;;;5091159;28;20020;-85
2024/01/22 03:02:28;;;;;;;14.50;2.00;;;24.10;65.40;;;;;;5093798;28;20168;-84
2024/01/22 03:04:55;;;;;;;11.95;1.73;;;24.10;65.00;;;;;;5086760;28;20024;-85
2024/01/22 03:07:25;;;;;;;11.95;1.95;;;24.10;64.80;;;;;;5086040;28;20068;-86
2024/01/22 03:09:52;;;;;;;11.77;1.90;;;24.10;64.40;;;;;;5053350;28;20070;-85
2024/01/22 03:12:20;;;;;;;10.02;1.77;;;24.20;64.60;;;;;;5063205;28;20033;-83
2024/01/22 03:14:47;;;;;;;11.88;1.83;;;24.20;63.80;;;;;;5086229;28;20479;-86
2024/01/22 03:17:14;;;;;;;11.80;1.73;;;24.20;64.20;;;;;;5081496;28;20036;-84
2024/01/22 03:19:42;;;;;;;12.60;1.85;;;24.20;63.80;;;;;;5074403;28;20097;-83
2024/01/22 03:22:12;;;;;;;6.97;1.55;;;24.30;63.50;;;;;;5071819;28;20119;-84
2024/01/22 03:24:44;;;;;;;9.27;1.90;;;24.30;63.20;;;;;;5071419;28;20029;-85
2024/01/22 03:27:11;;;;;;;6.32;1.60;;;24.30;63.50;;;;;;5068987;28;20083;-84
2024/01/22 03:29:39;;;;;;;6.63;1.60;;;24.30;63.10;;;;;;5075905;28;20070;-85
2024/01/22 03:32:07;;;;;;;7.65;1.38;;;24.40;62.90;;;;;;5088343;28;20028;-84
2024/01/22 03:34:35;;;;;;;11.45;1.80;;;24.50;63.20;;;;;;5062181;28;20028;-82
2024/01/22 03:37:02;;;;;;;8.55;1.65;;;24.50;62.50;;;;;;5068799;28;20068;-86
2024/01/22 03:39:30;;;;;;;6.95;1.60;;;24.50;62.50;;;;;;5079982;28;20111;-82
2024/01/22 03:41:57;;;;;;;9.32;1.90;;;24.50;61.60;;;;;;5093143;28;20041;-85
2024/01/22 03:44:24;;;;;;;8.85;2.10;;;24.50;62.40;;;;;;5093311;28;20032;-86
2024/01/22 03:46:52;;;;;;;10.20;2.00;;;24.50;63.10;;;;;;5078843;28;20028;-86
2024/01/22 03:49:19;;;;;;;7.43;1.48;;;24.50;62.50;;;;;;5070864;28;20497;-84
2024/01/22 03:51:48;;;;;;;8.45;2.28;;;24.40;63.40;;;;;;5070958;28;20044;-85
2024/01/22 03:54:15;;;;;;;6.00;1.42;;;24.40;63.30;;;;;;5079191;28;20082;-84
2024/01/22 03:56:43;;;;;;;9.63;1.60;;;24.30;63.70;;;;;;5066019;28;20429;-84
2024/01/22 03:59:11;;;;;;;9.15;1.70;;;24.30;63.80;;;;;;5088891;28;20020;-86
2024/01/22 04:01:39;;;;;;;4.50;1.73;;;24.30;64.00;;;;;;5073732;28;20502;-85
2024/01/22 04:04:06;;;;;;;8.10;1.85;;;24.20;63.40;;;;;;5091192;28;20052;-85
2024/01/22 04:06:34;;;;;;;11.35;2.15;;;24.20;63.60;;;;;;5092853;28;20036;-85
2024/01/22 04:09:01;;;;;;;8.10;1.67;;;24.20;63.60;;;;;;5090216;28;20031;-86
2024/01/22 04:11:28;;;;;;;9.23;1.80;;;24.20;64.00;;;;;;5093011;28;20386;-85
2024/01/22 04:13:56;;;;;;;6.07;1.73;;;24.20;64.00;;;;;;5075288;28;20467;-85
2024/01/22 04:16:24;;;;;;;9.40;1.70;;;24.20;63.70;;;;;;5071332;28;20094;-85
2024/01/22 04:18:51;;;;;;;9.05;1.92;;;24.20;64.00;;;;;;5086794;28;20046;-81
2024/01/22 04:21:19;;;;;;;13.75;1.92;;;24.30;64.20;;;;;;5092550;28;20376;-83
2024/01/22 04:23:47;;;;;;;9.50;2.00;;;24.30;63.90;;;;;;5075242;28;20436;-82
2024/01/22 04:26:14;;;;;;;6.93;1.58;;;24.30;64.00;;;;;;5072218;28;20035;-84
2024/01/22 04:28:42;;;;;;;16.60;2.28;;;24.30;63.50;;;;;;5079488;28;20051;-83
2024/01/22 04:31:09;;;;;;;10.25;1.77;;;24.30;64.30;;;;;;5083817;28;20028;-83
2024/01/22 04:33:36;;;;;;;7.07;1.60;;;24.30;64.40;;;;;;5076598;28;20191;-80
2024/01/22 04:36:04;;;;;;;6.43;1.90;;;24.30;64.10;;;;;;5079700;28;20032;-82
2024/01/22 04:38:31;;;;;;;8.10;1.55;;;24.30;63.80;;;;;;5065098;28;20024;-80
2024/01/22 04:40:59;;;;;;;9.23;1.75;;;24.20;64.00;;;;;;5052064;28;20033;-84
2024/01/22 04:43:26;;;;;;;9.10;1.98;;;24.30;64.00;;;;;;5076076;28;20494;-85
2024/01/22 04:45:54;;;;;;;9.32;1.98;;;24.30;63.70;;;;;;5078715;28;20084;-84
2024/01/22 04:48:21;;;;;;;7.10;1.83;;;24.30;64.20;;;;;;5074664;28;20672;-82
2024/01/22 04:50:48;;;;;;;7.25;1.60;;;24.30;64.30;;;;;;5081664;28;20051;-84
2024/01/22 04:53:16;;;;;;;4.85;1.42;;;24.40;64.10;;;;;;5084641;28;20028;-84
2024/01/22 04:55:43;;;;;;;9.27;1.90;;;24.40;64.00;;;;;;5086962;28;20046;-85
2024/01/22 04:58:10;;;;;;;9.70;1.95;;;24.40;64.40;;;;;;5082427;28;20021;-84
2024/01/22 05:00:40;;;;;;;10.40;2.15;;;24.40;64.30;;;;;;5072801;28;20077;-86
2024/01/22 05:03:08;;;;;;;7.07;1.48;;;24.30;64.10;;;;;;5060066;28;20040;-85
2024/01/22 05:05:36;;;;;;;6.88;1.83;;;24.40;64.50;;;;;;5069629;28;20388;-83
2024/01/22 05:08:03;;;;;;;11.63;2.20;;;24.40;64.70;;;;;;5070523;28;20094;-84
2024/01/22 05:10:31;;;;;;;10.90;2.00;;;24.40;64.70;;;;;;5077749;28;20125;-84
2024/01/22 05:12:58;;;;;;;9.07;2.20;;;24.50;64.40;;;;;;5071281;28;20118;-85
2024/01/22 05:15:26;;;;;;;9.63;2.03;;;24.40;63.90;;;;;;5083798;28;20048;-83
2024/01/22 05:17:53;;;;;;;9.18;2.00;;;24.40;64.10;;;;;;5076363;28;20095;-83
2024/01/22 05:20:20;;;;;;;7.18;1.75;;;24.40;64.40;;;;;;5082544;28;20036;-84
2024/01/22 05:22:48;;;;;;;10.75;2.00;;;24.40;64.60;;;;;;5070617;28;20029;-85
2024/01/22 05:25:15;;;;;;;10.40;1.92;;;24.30;64.50;;;;;;5079290;28;20025;-82
2024/01/22 05:27:47;;;;;;;8.88;2.25;;;24.40;65.10;;;;;;5076857;28;20533;-80
2024/01/22 05:30:15;;;;;;;11.88;2.03;;;24.40;64.80;;;;;;5074657;28;20029;-86
2024/01/22 05:32:42;;;;;;;9.70;2.20;;;24.50;64.70;;;;;;5074908;28;20027;-83
2024/01/22 05:35:09;;;;;;;10.07;3.03;;;24.60;64.50;;;;;;5078499;28;20024;-83
2024/01/22 05:37:37;;;;;;;10.25;2.05;;;24.60;64.20;;;;;;5076343;28;20617;-86
2024/01/22 05:40:06;;;;;;;12.40;2.20;;;24.60;64.70;;;;;;5079240;28;20045;-82
2024/01/22 05:42:34;;;;;;;9.57;2.03;;;24.60;64.80;;;;;;5070247;28;20107;-87
2024/01/22 05:45:03;;;;;;;8.63;2.13;;;24.60;64.60;;;;;;5081733;28;20483;-82
2024/01/22 05:47:31;;;;;;;10.27;1.90;;;24.70;64.20;;;;;;5072725;28;20735;-88
2024/01/22 05:49:58;;;;;;;10.38;2.38;;;24.60;64.00;;;;;;5076343;28;20104;-84
2024/01/22 05:52:26;;;;;;;10.55;2.20;;;24.60;64.10;;;;;;5078680;28;20116;-82
2024/01/22 05:54:53;;;;;;;12.05;2.40;;;24.50;64.30;;;;;;5061177;28;20024;-82
2024/01/22 05:57:20;;;;;;;10.40;1.95;;;24.40;64.40;;;;;;5063670;28;20028;-84
2024/01/22 05:59:55;;;;;;;10.63;1.90;;;24.40;64.60;;;;;;5072240;28;20025;-85
2024/01/22 06:02:23;;;;;;;8.68;2.10;;;24.30;64.70;;;;;;5058906;28;20475;-83
2024/01/22 06:04:50;;;;;;;11.45;2.55;;;24.30;64.60;;;;;;5054386;28;20420;-86
2024/01/22 06:07:18;;;;;;;6.75;2.00;;;24.20;64.10;;;;;;5063895;28;20048;-85
2024/01/22 06:09:45;;;;;;;12.32;2.67;;;24.20;64.60;;;;;;5069385;28;20031;-86
2024/01/22 06:12:13;;;;;;;10.25;2.83;;;24.20;64.80;;;;;;5078211;28;20101;-88
2024/01/22 06:14:40;;;;;;;11.25;2.72;;;24.20;65.20;;;;;;5061033;28;20502;-86
2024/01/22 06:17:08;;;;;;;15.38;2.55;;;24.10;65.60;;;;;;5060751;28;20072;-83
2024/01/22 06:19:38;;;;;;;11.85;2.47;;;24.10;65.70;;;;;;5072903;28;20056;-86
2024/01/22 06:22:06;;;;;;;13.23;2.58;;;24.00;66.10;;;;;;5080877;28;20024;-87
2024/01/22 06:24:38;;;;;;;12.52;2.60;;;23.90;66.40;;;;;;5080151;28;20050;-88
2024/01/22 06:27:06;;;;;;;19.00;3.17;;;23.90;66.50;;;;;;5067727;28;20036;-84
2024/01/22 06:29:35;;;;;;;10.95;2.85;;;23.90;66.90;;;;;;5066894;28;20387;-83
2024/01/22 06:32:03;;;;;;;11.43;2.25;;;23.80;67.40;;;;;;5059681;28;20066;-83
2024/01/22 06:34:30;;;;;;;13.02;2.85;;;23.80;67.30;;;;;;5069374;28;20020;-87
2024/01/22 06:36:58;;;;;;;14.80;2.80;;;23.80;67.50;;;;;;5084247;28;20407;-84
2024/01/22 06:39:26;;;;;;;15.43;2.90;;;23.80;67.40;;;;;;5068374;28;20039;-87
2024/01/22 06:41:54;;;;;;;17.70;3.33;;;23.70;67.40;;;;;;5082291;28;20536;-85
2024/01/22 06:44:22;;;;;;;11.55;2.90;;;23.70;67.80;;;;;;5061524;28;20025;-86
2024/01/22 06:46:49;;;;;;;18.42;3.25;;;23.70;67.90;;;;;;5062155;28;20457;-84
2024/01/22 06:49:16;;;;;;;10.68;2.53;;;23.70;68.00;;;;;;5052475;28;20028;-86
2024/01/22 06:51:44;;;;;;;16.88;2.78;;;23.60;68.10;;;;;;5067394;28;20543;-84
2024/01/22 06:54:11;;;;;;;13.18;2.65;;;23.70;68.20;;;;;;5073297;28;20024;-85
2024/01/22 06:56:40;;;;;;;12.65;2.58;;;23.70;67.90;;;;;;5063788;28;20035;-87
2024/01/22 06:59:10;;;;;;;7.75;2.00;;;23.70;67.90;;;;;;5070863;28;20025;-84
2024/01/22 07:01:38;;;;;;;11.75;2.45;;;23.70;67.70;;;;;;5073092;28;20379;-81
2024/01/22 07:04:05;;;;;;;9.52;2.20;;;23.70;67.70;;;;;;5070251;28;20044;-86
2024/01/22 07:06:35;;;;;;;12.20;2.88;;;23.70;68.00;;;;;;5073592;28;20063;-85
2024/01/22 07:09:02;;;;;;;15.13;2.80;;;23.70;68.10;;;;;;5063211;28;20021;-81
2024/01/22 07:11:30;;;;;;;12.02;2.65;;;23.60;68.00;;;;;;5060025;28;20052;-82
2024/01/22 07:13:58;;;;;;;12.82;3.38;;;23.60;68.00;;;;;;5067585;28;20467;-81
2024/01/22 07:16:26;;;;;;;10.18;2.17;;;23.50;68.30;;;;;;5071392;28;20055;-83
2024/01/22 07:18:54;;;;;;;7.05;1.73;;;23.50;68.30;;;;;;5071423;28;20025;-81
2024/01/22 07:21:22;;;;;;;14.10;2.95;;;23.50;68.50;;;;;;5060853;28;20028;-83
2024/01/22 07:23:51;;;;;;;11.05;2.20;;;23.50;68.40;;;;;;5061132;28;20505;-85
2024/01/22 07:26:19;;;;;;;18.67;3.38;;;23.50;67.90;;;;;;5062454;28;20031;-82
2024/01/22 07:28:46;;;;;;;13.07;2.78;;;23.40;67.90;;;;;;5070960;28;20032;-81
2024/01/22 07:31:14;;;;;;;15.18;2.55;;;23.40;68.10;;;;;;5070552;28;20024;-82
2024/01/22 07:33:41;;;;;;;13.52;2.22;;;23.40;68.10;;;;;;5060631;28;20029;-81
2024/01/22 07:36:09;;;;;;;13.35;2.45;;;23.30;68.00;;;;;;5056792;28;20441;-82
2024/01/22 07:38:37;;;;;;;13.77;2.58;;;23.30;68.10;;;;;;5064950;28;20035;-81
2024/01/22 07:41:05;;;;;;;12.60;2.60;;;23.30;68.10;;;;;;5069158;28;20162;-83
2024/01/22 07:43:33;;;;;;;18.80;2.63;;;23.30;68.50;;;;;;5070193;28;20016;-82
2024/01/22 07:46:00;;;;;;;11.77;2.10;;;23.20;68.70;;;;;;5069840;28;20043;-83
2024/01/22 07:48:28;;;;;;;18.15;3.28;;;23.20;69.00;;;;;;5057652;28;20044;-83
2024/01/22 07:51:00;;;;;;;13.38;2.58;;;23.20;69.10;;;;;;5058178;28;20499;-84
2024/01/22 07:53:27;;;;;;;12.65;2.33;;;23.30;69.20;;;;;;5057446;28;20031;-82
2024/01/22 07:55:54;;;;;;;16.58;2.65;;;23.30;69.40;;;;;;5070754;28;20047;-82
2024/01/22 07:58:24;;;;;;;12.02;2.70;;;23.20;69.40;;;;;;5072965;28;20101;-82
2024/01/22 08:00:52;;;;;;;13.63;2.53;;;23.20;69.60;;;;;;5073098;28;20100;-87
2024/01/22 08:03:19;;;;;;;11.32;2.25;;;23.30;69.50;;;;;;5075918;28;20025;-83
2024/01/22 08:05:46;;;;;;;11.38;2.85;;;23.30;69.70;;;;;;5072536;28;20390;-86
2024/01/22 08:08:14;;;;;;;13.38;2.35;;;23.30;69.70;;;;;;5075647;28;20374;-87
2024/01/22 08:10:41;;;;;;;10.93;2.65;;;23.20;69.90;;;;;;5072155;28;20077;-81
2024/01/22 08:13:09;;;;;;;7.38;2.08;;;23.20;70.00;;;;;;5075342;28;20079;-82
2024/01/22 08:15:37;;;;;;;15.43;2.78;;;23.20;70.20;;;;;;5088528;28;20072;-84
2024/01/22 08:18:05;;;;;;;14.68;2.78;;;23.20;70.30;;;;;;5081772;28;20056;-83
2024/01/22 08:20:32;;;;;;;11.45;2.58;;;23.10;70.30;;;;;;5067554;28;20069;-85
2024/01/22 08:23:00;;;;;;;17.48;2.35;;;23.00;70.40;;;;;;5071979;28;20035;-84
2024/01/22 08:25:28;;;;;;;10.07;2.30;;;23.00;70.40;;;;;;5072594;28;20017;-82
2024/01/22 08:27:58;;;;;;;15.98;2.22;;;23.00;70.50;;;;;;5072591;28;20080;-85
2024/01/22 08:30:27;;;;;;;12.32;2.55;;;23.00;70.60;;;;;;5070950;28;20456;-86
2024/01/22 08:32:58;;;;;;;9.43;2.10;;;23.00;70.40;;;;;;5066161;28;20028;-84
2024/01/22 08:35:28;;;;;;;11.73;2.72;;;23.00;70.60;;;;;;5073045;28;20017;-82
2024/01/22 08:37:59;;;;;;;16.45;2.85;;;23.00;70.60;;;;;;5072843;28;20053;-82
2024/01/22 08:40:30;;;;;;;16.58;2.60;;;23.00;70.60;;;;;;5060075;28;20029;-83
2024/01/22 08:43:04;;;;;;;17.38;3.40;;;23.00;70.50;;;;;;5068117;28;20070;-80
2024/01/22 08:45:33;;;;;;;11.88;2.50;;;22.90;70.70;;;;;;5069992;28;20078;-85
2024/01/22 08:48:01;;;;;;;8.15;2.20;;;22.90;70.60;;;;;;5070981;28;20280;-82
2024/01/22 08:50:29;;;;;;;10.55;2.38;;;22.90;70.50;;;;;;5071836;28;20021;-85
2024/01/22 08:53:00;;;;;;;11.35;2.55;;;22.90;70.60;;;;;;5075526;28;20444;-82
2024/01/22 08:55:30;;;;;;;12.77;2.50;;;22.90;70.20;;;;;;5084323;28;20038;-82
2024/01/22 08:58:00;;;;;;;11.30;2.85;;;22.90;70.10;;;;;;5076039;28;20381;-81
2024/01/22 09:00:31;;;;;;;8.70;2.47;;;22.80;70.20;;;;;;5078307;28;20017;-83
2024/01/22 09:02:59;;;;;;;10.68;2.25;;;22.80;70.50;;;;;;5077287;28;20434;-84
2024/01/22 09:05:32;;;;;;;12.25;2.17;;;22.80;70.60;;;;;;5067847;28;20029;-84
2024/01/22 09:08:00;;;;;;;14.65;2.13;;;22.80;70.50;;;;;;5079432;28;20021;-83
2024/01/22 09:10:31;;;;;;;7.32;2.20;;;22.80;70.50;;;;;;5066194;28;20013;-81
2024/01/22 09:13:01;;;;;;;11.18;2.63;;;22.80;70.70;;;;;;5076559;28;20020;-81
2024/01/22 09:15:29;;;;;;;11.43;2.22;;;22.80;70.70;;;;;;5075260;28;20036;-84
2024/01/22 09:18:00;;;;;;;13.07;2.17;;;22.80;70.70;;;;;;5073724;28;20086;-84
2024/01/22 09:20:30;;;;;;;12.18;2.10;;;22.80;70.80;;;;;;5076018;28;20016;-82
2024/01/22 09:23:01;;;;;;;12.45;2.35;;;22.80;70.80;;;;;;5077205;28;20024;-83
2024/01/22 09:25:31;;;;;;;11.60;2.20;;;22.80;70.80;;;;;;5075794;28;20028;-82
2024/01/22 09:28:02;;;;;;;15.50;3.00;;;22.80;70.90;;;;;;5075797;28;20091;-87
2024/01/22 09:30:32;;;;;;;13.05;3.03;;;22.80;70.90;;;;;;5076748;28;20048;-85
2024/01/22 09:32:59;;;;;;;10.57;2.10;;;22.80;70.90;;;;;;5070584;28;20024;-87
2024/01/22 09:35:28;;;;;;;11.00;2.60;;;22.80;70.80;;;;;;5081932;28;20020;-87
2024/01/22 09:38:01;;;;;;;10.05;2.40;;;22.80;70.40;;;;;;5076403;28;20056;-87
2024/01/22 09:40:35;;;;;;;9.40;2.40;;;22.80;70.70;;;;;;5071065;28;20043;-84
2024/01/22 09:43:10;;;;;;;10.95;2.20;;;22.80;70.80;;;;;;5068494;28;20029;-85
2024/01/22 09:45:40;;;;;;;13.27;2.40;;;22.80;70.80;;;;;;5072532;28;20056;-88
2024/01/22 09:48:10;;;;;;;8.82;2.00;;;22.80;70.70;;;;;;5063343;28;20468;-87
2024/01/22 09:50:41;;;;;;;14.18;2.38;;;22.70;70.70;;;;;;5078042;28;20031;-84
2024/01/22 09:53:13;;;;;;;9.98;2.22;;;22.80;70.80;;;;;;5081785;28;20103;-88
2024/01/22 09:55:44;;;;;;;7.47;2.22;;;22.70;71.00;;;;;;5081609;28;20060;-84
2024/01/22 09:58:17;;;;;;;8.93;2.30;;;22.70;71.10;;;;;;5076174;28;20034;-85
2024/01/22 10:00:46;;;;;;;11.90;3.40;;;22.70;71.00;;;;;;5070788;28;20028;-81
2024/01/22 10:03:14;;;;;;;11.48;3.28;;;22.70;71.00;;;;;;5068390;28;20472;-85
2024/01/22 10:05:43;;;;;;;9.00;2.63;;;22.80;71.00;;;;;;5077672;28;20036;-84
2024/01/22 10:08:10;;;;;;;8.27;2.17;;;22.80;71.10;;;;;;5072221;28;20020;-81
2024/01/22 10:10:38;;;;;;;8.45;2.25;;;22.80;71.00;;;;;;5074395;28;20016;-81
2024/01/22 10:13:09;;;;;;;9.27;1.90;;;22.80;71.20;;;;;;5061090;28;20035;-85
2024/01/22 10:15:39;;;;;;;8.95;2.30;;;22.80;71.20;;;;;;5074588;28;20094;-80
2024/01/22 10:18:14;;;;;;;8.63;2.22;;;22.80;71.20;;;;;;5079445;28;20081;-81
2024/01/22 10:20:43;;;;;;;10.32;2.70;;;22.80;71.20;;;;;;5068112;28;20020;-81
2024/01/22 10:23:11;;;;;;;13.43;2.65;;;22.80;71.20;;;;;;5075998;28;20028;-89
2024/01/22 10:25:42;;;;;;;12.93;2.42;;;22.80;71.30;;;;;;5076307;28;20559;-82
2024/01/22 10:28:21;;;;;;;16.05;2.10;;;22.80;71.40;;;;;;5075980;28;20038;-80
2024/01/22 10:31:05;;;;;;;7.95;2.13;;;22.80;71.30;;;;;;5078100;28;20388;-81
2024/01/22 10:33:42;;;;;;;16.05;2.97;;;22.80;71.50;;;;;;5059520;28;20871;-81
2024/01/22 10:36:21;;;;;;;10.60;2.13;;;22.80;71.20;;;;;;5078745;28;20025;-81
2024/01/22 10:39:05;;;;;;;8.30;1.83;;;22.80;71.50;;;;;;5071685;28;20086;-89
2024/01/22 10:41:46;;;;;;;8.90;2.15;;;22.80;71.50;;;;;;5077384;28;20081;-86
2024/01/22 10:44:16;;;;;;;8.50;2.10;;;22.80;71.50;;;;;;5074953;28;20036;-81
2024/01/22 10:46:44;;;;;;;16.10;3.03;;;22.80;71.50;;;;;;5062000;28;20047;-82
2024/01/22 10:49:15;;;;;;;9.32;2.70;;;22.80;71.40;;;;;;5075126;28;20490;-83
2024/01/22 10:51:51;;;;;;;17.85;3.67;;;22.80;71.60;;;;;;5066005;28;20399;-84
2024/01/22 10:54:39;;;;;;;7.72;2.20;;;22.70;71.70;;;;;;5064776;28;20028;-85
2024/01/22 10:57:14;;;;;;;9.88;2.00;;;22.80;71.60;;;;;;5058596;28;20036;-84
2024/01/22 10:59:56;;;;;;;11.13;2.15;;;22.70;71.70;;;;;;5074817;28;20031;-82
2024/01/22 11:02:24;;;;;;;10.23;2.28;;;22.60;71.60;;;;;;5074814;28;20038;-85
2024/01/22 11:05:04;;;;;;;9.43;2.40;;;22.60;71.50;;;;;;5080684;28;20028;-80
2024/01/22 11:07:37;;;;;;;14.73;2.83;;;22.60;71.80;;;;;;5073869;28;20044;-83
2024/01/22 11:10:06;;;;;;;10.45;2.05;;;22.60;71.80;;;;;;5073998;28;20016;-89
2024/01/22 11:12:49;;;;;;;9.18;2.00;;;22.50;71.80;;;;;;5070227;28;20858;-82
2024/01/22 11:15:17;;;;;;;7.45;1.95;;;22.50;71.90;;;;;;5051082;28;20029;-81
2024/01/22 11:17:45;;;;;;;11.80;2.00;;;22.50;71.90;;;;;;5036324;28;20025;-81
2024/01/22 11:20:16;;;;;;;5.82;1.50;;;22.60;71.80;;;;;;5041436;28;20029;-80
2024/01/22 11:23:02;;;;;;;8.93;2.17;;;22.50;71.90;;;;;;5047588;28;20407;-90
2024/01/22 11:25:30;;;;;;;12.35;2.33;;;22.50;71.90;;;;;;5043587;28;20499;-84
2024/01/22 11:28:12;;;;;;;8.68;2.15;;;22.50;71.90;;;;;;5044461;28;20033;-83
2024/01/22 11:30:41;;;;;;;6.97;1.92;;;22.50;72.00;;;;;;5034129;28;20029;-85
2024/01/22 11:33:27;;;;;;;13.77;2.42;;;22.50;71.90;;;;;;5038508;28;20037;-85
2024/01/22 11:35:54;;;;;;;14.07;2.45;;;22.50;71.80;;;;;;5035634;28;20025;-83
2024/01/22 11:38:43;;;;;;;9.02;1.80;;;22.50;71.70;;;;;;5033537;28;20108;-85
2024/01/22 11:41:10;;;;;;;12.70;2.20;;;22.50;71.80;;;;;;5024927;28;20419;-86
2024/01/22 11:43:37;;;;;;;5.38;1.83;;;22.50;71.90;;;;;;5020239;28;20033;-81
2024/01/22 11:46:16;;;;;;;11.23;2.13;;;22.50;72.20;;;;;;5024853;28;20088;-84
2024/01/22 11:48:43;;;;;;;9.13;1.73;;;22.50;72.20;;;;;;5029558;28;20034;-89
2024/01/22 11:51:12;;;;;;;10.68;2.10;;;22.50;72.30;;;;;;5031475;28;20112;-81
2024/01/22 11:53:56;;;;;;;8.73;2.58;;;22.50;72.30;;;;;;5033197;28;20397;-84
2024/01/22 11:56:23;;;;;;;11.30;1.77;;;22.50;72.60;;;;;;5039367;28;20095;-85
2024/01/22 11:59:04;;;;;;;12.57;2.08;;;22.50;72.70;;;;;;5036935;28;20146;-86
2024/01/22 12:01:32;;;;;;;10.25;2.00;;;22.40;72.90;;;;;;5043815;28;20021;-84
2024/01/22 12:04:10;;;;;;;7.80;2.00;;;22.40;73.10;;;;;;5051360;28;20029;-90
2024/01/22 12:06:52;;;;;;;6.53;1.83;;;22.40;73.00;;;;;;5027113;28;20044;-82
2024/01/22 12:09:20;;;;;;;8.52;1.90;;;22.40;73.00;;;;;;5038263;28;20014;-81
2024/01/22 12:11:54;;;;;;;9.43;1.80;;;22.40;73.00;;;;;;5031392;28;20508;-80
2024/01/22 12:14:24;;;;;;;10.93;2.72;;;22.50;73.30;;;;;;5031987;28;20033;-82
2024/01/22 12:17:03;;;;;;;14.55;2.10;;;22.50;73.10;;;;;;5068027;28;20143;-83
2024/01/22 12:19:31;;;;;;;10.93;2.05;;;22.50;73.00;;;;;;5083487;28;20051;-81
2024/01/22 12:21:58;;;;;;;8.90;1.88;;;22.50;72.90;;;;;;5076639;28;20043;-82
2024/01/22 12:24:25;;;;;;;8.18;1.70;;;22.50;72.80;;;;;;5077493;28;20150;-81
2024/01/22 12:26:56;;;;;;;8.23;2.13;;;22.50;72.70;;;;;;5070850;28;20507;-80
2024/01/22 12:29:27;;;;;;;6.45;1.70;;;22.50;72.60;;;;;;5060542;28;20085;-85
2024/01/22 12:32:05;;;;;;;4.57;1.55;;;22.50;72.60;;;;;;5068997;28;20024;-84
2024/01/22 12:34:33;;;;;;;6.90;1.60;;;22.50;72.80;;;;;;5074315;28;20024;-81
2024/01/22 12:37:18;;;;;;;8.30;2.22;;;22.50;72.70;;;;;;5071966;28;20028;-85
2024/01/22 12:39:46;;;;;;;10.00;1.90;;;22.50;72.80;;;;;;5071831;28;20017;-82
2024/01/22 12:42:19;;;;;;;10.52;2.05;;;22.50;72.70;;;;;;5071826;28;20039;-81
2024/01/22 12:45:00;;;;;;;11.15;2.22;;;22.50;72.70;;;;;;5080929;28;20028;-81
2024/01/22 12:47:30;;;;;;;10.68;2.20;;;22.60;72.40;;;;;;5071299;28;20040;-80
2024/01/22 12:49:58;;;;;;;14.68;2.22;;;22.60;72.50;;;;;;5069683;28;20032;-81
2024/01/22 12:52:25;;;;;;;9.60;1.98;;;22.50;72.40;;;;;;5069376;28;20029;-80